sensor_id;sensor_type;location;lat;lon;timestamp;P1;P2;P0
73565;PMS5003;61846;52.970;-3.168;2024-01-07T00:01:08;11;11;
73565;PMS5003;61846;52.970;-3.168;2024-01-07T00:03:32;12;12;
73565;PMS5003;61846;52.970;-3.168;2024-01-07T00:05:58;11;11;
73565;PMS5003;61846;52.970;-3.168;2024-01-07T00:08:23;16;11;
73565;PMS5003;61846;52.970;-3.168;2024-01-07T00:10:49;12;12;
73565;PMS5003;61846;52.970;-3.168;2024-01-07T00:13:15;16;14;
73565;PMS5003;61846;52.970;-3.168;2024-01-07T00:15:40;11;11;
73565;PMS5003;61846;52.970;-3.168;2024-01-07T00:18:05;22;14;
73565;PMS5003;61846;52.970;-3.168;2024-01-07T00:20:30;16;13;
73565;PMS5003;61846;52.970;-3.168;2024-01-07T00:22:57;13;10;
73565;PMS5003;61846;52.970;-3.168;2024-01-07T00:25:21;13;13;
73565;PMS5003;61846;52.970;-3.168;2024-01-07T00:27:47;13;13;
73565;PMS5003;61846;52.970;-3.168;2024-01-07T00:30:13;13;11;
73565;PMS5003;61846;52.970;-3.168;2024-01-07T00:32:38;14;14;
73565;PMS5003;61846;52.970;-3.168;2024-01-07T00:35:03;15;10;
73565;PMS5003;61846;52.970;-3.168;2024-01-07T00:37:29;11;11;
73565;PMS5003;61846;52.970;-3.168;2024-01-07T00:39:55;10;10;
73565;PMS5003;61846;52.970;-3.168;2024-01-07T00:42:21;13;10;
73565;PMS5003;61846;52.970;-3.168;2024-01-07T00:44:46;21;12;
73565;PMS5003;61846;52.970;-3.168;2024-01-07T00:47:11;15;13;
73565;PMS5003;61846;52.970;-3.168;2024-01-07T00:49:37;10;10;
73565;PMS5003;61846;52.970;-3.168;2024-01-07T00:52:03;13;12;
73565;PMS5003;61846;52.970;-3.168;2024-01-07T00:54:28;14;13;
73565;PMS5003;61846;52.970;-3.168;2024-01-07T00:56:54;12;10;
73565;PMS5003;61846;52.970;-3.168;2024-01-07T00:59:19;16;15;
73565;PMS5003;61846;52.970;-3.168;2024-01-07T01:01:45;17;17;
73565;PMS5003;61846;52.970;-3.168;2024-01-07T01:04:10;13;13;
73565;PMS5003;61846;52.970;-3.168;2024-01-07T01:06:36;22;15;
73565;PMS5003;61846;52.970;-3.168;2024-01-07T01:09:01;18;13;
73565;PMS5003;61846;52.970;-3.168;2024-01-07T01:11:27;11;11;
73565;PMS5003;61846;52.970;-3.168;2024-01-07T01:13:53;13;11;
73565;PMS5003;61846;52.970;-3.168;2024-01-07T01:16:18;24;17;
73565;PMS5003;61846;52.970;-3.168;2024-01-07T01:18:44;11;9;
73565;PMS5003;61846;52.970;-3.168;2024-01-07T01:21:09;19;15;
73565;PMS5003;61846;52.970;-3.168;2024-01-07T01:23:34;12;11;
73565;PMS5003;61846;52.970;-3.168;2024-01-07T01:26:00;20;14;
73565;PMS5003;61846;52.970;-3.168;2024-01-07T01:28:25;21;15;
73565;PMS5003;61846;52.970;-3.168;2024-01-07T01:30:51;12;11;
73565;PMS5003;61846;52.970;-3.168;2024-01-07T01:33:16;20;13;
73565;PMS5003;61846;52.970;-3.168;2024-01-07T01:35:41;18;16;
73565;PMS5003;61846;52.970;-3.168;2024-01-07T01:38:07;25;18;
73565;PMS5003;61846;52.970;-3.168;2024-01-07T01:40:32;15;12;
73565;PMS5003;61846;52.970;-3.168;2024-01-07T01:42:58;16;16;
73565;PMS5003;61846;52.970;-3.168;2024-01-07T01:45:23;17;13;
73565;PMS5003;61846;52.970;-3.168;2024-01-07T01:47:49;18;13;
73565;PMS5003;61846;52.970;-3.168;2024-01-07T01:50:15;17;15;
73565;PMS5003;61846;52.970;-3.168;2024-01-07T01:52:40;25;18;
73565;PMS5003;61846;52.970;-3.168;2024-01-07T01:55:06;15;14;
73565;PMS5003;61846;52.970;-3.168;2024-01-07T01:57:33;23;18;
73565;PMS5003;61846;52.970;-3.168;2024-01-07T01:59:57;16;15;
73565;PMS5003;61846;52.970;-3.168;2024-01-07T02:02:23;26;19;
73565;PMS5003;61846;52.970;-3.168;2024-01-07T02:04:48;18;17;
73565;PMS5003;61846;52.970;-3.168;2024-01-07T02:07:14;29;20;
73565;PMS5003;61846;52.970;-3.168;2024-01-07T02:09:39;15;14;
73565;PMS5003;61846;52.970;-3.168;2024-01-07T02:12:05;22;19;
73565;PMS5003;61846;52.970;-3.168;2024-01-07T02:14:30;21;18;
73565;PMS5003;61846;52.970;-3.168;2024-01-07T02:16:56;26;19;
73565;PMS5003;61846;52.970;-3.168;2024-01-07T02:19:22;22;18;
73565;PMS5003;61846;52.970;-3.168;2024-01-07T02:21:47;18;14;
73565;PMS5003;61846;52.970;-3.168;2024-01-07T02:24:15;16;16;
73565;PMS5003;61846;52.970;-3.168;2024-01-07T02:26:38;18;18;
73565;PMS5003;61846;52.970;-3.168;2024-01-07T02:29:03;23;15;
73565;PMS5003;61846;52.970;-3.168;2024-01-07T02:31:29;18;17;
73565;PMS5003;61846;52.970;-3.168;2024-01-07T02:33:54;17;15;
73565;PMS5003;61846;52.970;-3.168;2024-01-07T02:36:19;15;15;
73565;PMS5003;61846;52.970;-3.168;2024-01-07T02:38:45;18;15;
73565;PMS5003;61846;52.970;-3.168;2024-01-07T02:41:10;14;14;
73565;PMS5003;61846;52.970;-3.168;2024-01-07T02:43:36;20;18;
73565;PMS5003;61846;52.970;-3.168;2024-01-07T02:46:01;14;13;
73565;PMS5003;61846;52.970;-3.168;2024-01-07T02:48:27;20;13;
73565;PMS5003;61846;52.970;-3.168;2024-01-07T02:50:53;16;14;
73565;PMS5003;61846;52.970;-3.168;2024-01-07T02:53:19;19;18;
73565;PMS5003;61846;52.970;-3.168;2024-01-07T02:55:44;17;12;
73565;PMS5003;61846;52.970;-3.168;2024-01-07T02:58:09;21;13;
73565;PMS5003;61846;52.970;-3.168;2024-01-07T03:00:35;15;13;
73565;PMS5003;61846;52.970;-3.168;2024-01-07T03:03:01;24;16;
73565;PMS5003;61846;52.970;-3.168;2024-01-07T03:05:26;21;12;
73565;PMS5003;61846;52.970;-3.168;2024-01-07T03:07:51;21;14;
73565;PMS5003;61846;52.970;-3.168;2024-01-07T03:10:17;21;15;
73565;PMS5003;61846;52.970;-3.168;2024-01-07T03:12:42;15;15;
73565;PMS5003;61846;52.970;-3.168;2024-01-07T03:15:08;14;13;
73565;PMS5003;61846;52.970;-3.168;2024-01-07T03:17:33;15;13;
73565;PMS5003;61846;52.970;-3.168;2024-01-07T03:19:59;13;13;
73565;PMS5003;61846;52.970;-3.168;2024-01-07T03:22:24;21;14;
73565;PMS5003;61846;52.970;-3.168;2024-01-07T03:24:49;15;12;
73565;PMS5003;61846;52.970;-3.168;2024-01-07T03:27:15;13;13;
73565;PMS5003;61846;52.970;-3.168;2024-01-07T03:29:40;25;17;
73565;PMS5003;61846;52.970;-3.168;2024-01-07T03:32:06;16;16;
73565;PMS5003;61846;52.970;-3.168;2024-01-07T03:34:32;16;16;
73565;PMS5003;61846;52.970;-3.168;2024-01-07T03:36:57;13;13;
73565;PMS5003;61846;52.970;-3.168;2024-01-07T03:39:23;12;12;
73565;PMS5003;61846;52.970;-3.168;2024-01-07T03:41:49;16;12;
73565;PMS5003;61846;52.970;-3.168;2024-01-07T03:44:15;13;11;
73565;PMS5003;61846;52.970;-3.168;2024-01-07T03:46:40;15;13;
73565;PMS5003;61846;52.970;-3.168;2024-01-07T03:49:06;15;14;
73565;PMS5003;61846;52.970;-3.168;2024-01-07T03:51:32;12;12;
73565;PMS5003;61846;52.970;-3.168;2024-01-07T03:53:58;11;11;
73565;PMS5003;61846;52.970;-3.168;2024-01-07T03:56:23;10;10;
73565;PMS5003;61846;52.970;-3.168;2024-01-07T03:58:49;14;14;
73565;PMS5003;61846;52.970;-3.168;2024-01-07T04:01:15;11;11;
73565;PMS5003;61846;52.970;-3.168;2024-01-07T04:03:40;21;14;
73565;PMS5003;61846;52.970;-3.168;2024-01-07T04:06:06;17;10;
73565;PMS5003;61846;52.970;-3.168;2024-01-07T04:08:31;15;13;
73565;PMS5003;61846;52.970;-3.168;2024-01-07T04:10:56;16;13;
73565;PMS5003;61846;52.970;-3.168;2024-01-07T04:13:22;14;13;
73565;PMS5003;61846;52.970;-3.168;2024-01-07T04:15:47;27;18;
73565;PMS5003;61846;52.970;-3.168;2024-01-07T04:18:13;12;11;
73565;PMS5003;61846;52.970;-3.168;2024-01-07T04:20:39;11;10;
73565;PMS5003;61846;52.970;-3.168;2024-01-07T04:23:05;15;12;
73565;PMS5003;61846;52.970;-3.168;2024-01-07T04:25:31;17;14;
73565;PMS5003;61846;52.970;-3.168;2024-01-07T04:27:56;13;12;
73565;PMS5003;61846;52.970;-3.168;2024-01-07T04:30:22;13;11;
73565;PMS5003;61846;52.970;-3.168;2024-01-07T04:32:47;14;11;
73565;PMS5003;61846;52.970;-3.168;2024-01-07T04:35:13;13;11;
73565;PMS5003;61846;52.970;-3.168;2024-01-07T04:37:39;15;12;
73565;PMS5003;61846;52.970;-3.168;2024-01-07T04:40:04;14;13;
73565;PMS5003;61846;52.970;-3.168;2024-01-07T04:42:29;10;8;
73565;PMS5003;61846;52.970;-3.168;2024-01-07T04:44:55;20;13;
73565;PMS5003;61846;52.970;-3.168;2024-01-07T04:47:25;13;13;
73565;PMS5003;61846;52.970;-3.168;2024-01-07T04:49:46;14;14;
73565;PMS5003;61846;52.970;-3.168;2024-01-07T04:52:11;15;14;
73565;PMS5003;61846;52.970;-3.168;2024-01-07T04:54:37;14;11;
73565;PMS5003;61846;52.970;-3.168;2024-01-07T04:57:02;16;11;
73565;PMS5003;61846;52.970;-3.168;2024-01-07T04:59:28;19;14;
73565;PMS5003;61846;52.970;-3.168;2024-01-07T05:01:53;12;11;
73565;PMS5003;61846;52.970;-3.168;2024-01-07T05:04:18;12;11;
73565;PMS5003;61846;52.970;-3.168;2024-01-07T05:06:44;17;13;
73565;PMS5003;61846;52.970;-3.168;2024-01-07T05:09:09;9;9;
73565;PMS5003;61846;52.970;-3.168;2024-01-07T05:11:39;9;9;
73565;PMS5003;61846;52.970;-3.168;2024-01-07T05:14:00;11;9;
73565;PMS5003;61846;52.970;-3.168;2024-01-07T05:16:26;14;13;
73565;PMS5003;61846;52.970;-3.168;2024-01-07T05:18:51;14;12;
73565;PMS5003;61846;52.970;-3.168;2024-01-07T05:21:18;10;10;
73565;PMS5003;61846;52.970;-3.168;2024-01-07T05:23:42;16;13;
73565;PMS5003;61846;52.970;-3.168;2024-01-07T05:26:07;16;13;
73565;PMS5003;61846;52.970;-3.168;2024-01-07T05:28:32;15;10;
73565;PMS5003;61846;52.970;-3.168;2024-01-07T05:30:58;13;12;
73565;PMS5003;61846;52.970;-3.168;2024-01-07T05:33:23;9;9;
73565;PMS5003;61846;52.970;-3.168;2024-01-07T05:35:49;12;10;
73565;PMS5003;61846;52.970;-3.168;2024-01-07T05:38:15;14;13;
73565;PMS5003;61846;52.970;-3.168;2024-01-07T05:40:40;11;10;
73565;PMS5003;61846;52.970;-3.168;2024-01-07T05:43:05;9;9;
73565;PMS5003;61846;52.970;-3.168;2024-01-07T05:45:31;11;8;
73565;PMS5003;61846;52.970;-3.168;2024-01-07T05:47:56;9;9;
73565;PMS5003;61846;52.970;-3.168;2024-01-07T05:50:22;14;12;
73565;PMS5003;61846;52.970;-3.168;2024-01-07T05:52:47;10;10;
73565;PMS5003;61846;52.970;-3.168;2024-01-07T05:55:13;16;10;
73565;PMS5003;61846;52.970;-3.168;2024-01-07T05:57:38;11;11;
73565;PMS5003;61846;52.970;-3.168;2024-01-07T06:00:05;10;8;
73565;PMS5003;61846;52.970;-3.168;2024-01-07T06:02:29;9;9;
73565;PMS5003;61846;52.970;-3.168;2024-01-07T06:04:55;6;6;
73565;PMS5003;61846;52.970;-3.168;2024-01-07T06:07:20;13;12;
73565;PMS5003;61846;52.970;-3.168;2024-01-07T06:09:45;13;11;
73565;PMS5003;61846;52.970;-3.168;2024-01-07T06:12:11;10;8;
73565;PMS5003;61846;52.970;-3.168;2024-01-07T06:14:37;11;11;
73565;PMS5003;61846;52.970;-3.168;2024-01-07T06:17:02;7;7;
73565;PMS5003;61846;52.970;-3.168;2024-01-07T06:19:29;8;7;
73565;PMS5003;61846;52.970;-3.168;2024-01-07T06:21:53;8;7;
73565;PMS5003;61846;52.970;-3.168;2024-01-07T06:24:19;8;8;
73565;PMS5003;61846;52.970;-3.168;2024-01-07T06:26:44;10;8;
73565;PMS5003;61846;52.970;-3.168;2024-01-07T06:29:10;7;7;
73565;PMS5003;61846;52.970;-3.168;2024-01-07T06:31:36;8;7;
73565;PMS5003;61846;52.970;-3.168;2024-01-07T06:34:01;9;9;
73565;PMS5003;61846;52.970;-3.168;2024-01-07T06:36:27;9;9;
73565;PMS5003;61846;52.970;-3.168;2024-01-07T06:38:53;9;9;
73565;PMS5003;61846;52.970;-3.168;2024-01-07T06:41:19;8;7;
73565;PMS5003;61846;52.970;-3.168;2024-01-07T06:43:45;12;8;
73565;PMS5003;61846;52.970;-3.168;2024-01-07T06:46:10;9;9;
73565;PMS5003;61846;52.970;-3.168;2024-01-07T06:48:36;12;9;
73565;PMS5003;61846;52.970;-3.168;2024-01-07T06:51:02;35;24;
73565;PMS5003;61846;52.970;-3.168;2024-01-07T06:53:27;15;12;
73565;PMS5003;61846;52.970;-3.168;2024-01-07T06:55:53;8;8;
73565;PMS5003;61846;52.970;-3.168;2024-01-07T06:58:18;13;8;
73565;PMS5003;61846;52.970;-3.168;2024-01-07T07:00:44;10;10;
73565;PMS5003;61846;52.970;-3.168;2024-01-07T07:03:10;7;6;
73565;PMS5003;61846;52.970;-3.168;2024-01-07T07:05:35;12;9;
73565;PMS5003;61846;52.970;-3.168;2024-01-07T07:08:01;7;7;
73565;PMS5003;61846;52.970;-3.168;2024-01-07T07:10:26;8;8;
73565;PMS5003;61846;52.970;-3.168;2024-01-07T07:12:52;9;9;
73565;PMS5003;61846;52.970;-3.168;2024-01-07T07:15:18;13;9;
73565;PMS5003;61846;52.970;-3.168;2024-01-07T07:17:44;7;7;
73565;PMS5003;61846;52.970;-3.168;2024-01-07T07:20:10;7;7;
73565;PMS5003;61846;52.970;-3.168;2024-01-07T07:22:35;24;20;
73565;PMS5003;61846;52.970;-3.168;2024-01-07T07:25:00;16;12;
73565;PMS5003;61846;52.970;-3.168;2024-01-07T07:27:26;8;8;
73565;PMS5003;61846;52.970;-3.168;2024-01-07T07:29:52;9;9;
73565;PMS5003;61846;52.970;-3.168;2024-01-07T07:32:17;31;22;
73565;PMS5003;61846;52.970;-3.168;2024-01-07T07:34:43;10;8;
73565;PMS5003;61846;52.970;-3.168;2024-01-07T07:37:09;8;8;
73565;PMS5003;61846;52.970;-3.168;2024-01-07T07:39:34;13;10;
73565;PMS5003;61846;52.970;-3.168;2024-01-07T07:42:00;9;8;
73565;PMS5003;61846;52.970;-3.168;2024-01-07T07:44:26;6;6;
73565;PMS5003;61846;52.970;-3.168;2024-01-07T07:46:51;9;9;
73565;PMS5003;61846;52.970;-3.168;2024-01-07T07:49:17;8;7;
73565;PMS5003;61846;52.970;-3.168;2024-01-07T07:51:43;9;9;
73565;PMS5003;61846;52.970;-3.168;2024-01-07T07:54:09;14;13;
73565;PMS5003;61846;52.970;-3.168;2024-01-07T07:56:34;8;8;
73565;PMS5003;61846;52.970;-3.168;2024-01-07T07:59:00;9;7;
73565;PMS5003;61846;52.970;-3.168;2024-01-07T08:01:25;10;9;
73565;PMS5003;61846;52.970;-3.168;2024-01-07T08:03:51;10;10;
73565;PMS5003;61846;52.970;-3.168;2024-01-07T08:06:17;10;10;
73565;PMS5003;61846;52.970;-3.168;2024-01-07T08:08:42;16;8;
73565;PMS5003;61846;52.970;-3.168;2024-01-07T08:11:08;8;8;
73565;PMS5003;61846;52.970;-3.168;2024-01-07T08:13:34;13;11;
73565;PMS5003;61846;52.970;-3.168;2024-01-07T08:15:59;9;6;
73565;PMS5003;61846;52.970;-3.168;2024-01-07T08:18:25;8;6;
73565;PMS5003;61846;52.970;-3.168;2024-01-07T08:20:51;10;10;
73565;PMS5003;61846;52.970;-3.168;2024-01-07T08:23:16;8;8;
73565;PMS5003;61846;52.970;-3.168;2024-01-07T08:25:41;13;10;
73565;PMS5003;61846;52.970;-3.168;2024-01-07T08:28:07;19;13;
73565;PMS5003;61846;52.970;-3.168;2024-01-07T08:30:33;11;9;
73565;PMS5003;61846;52.970;-3.168;2024-01-07T08:32:59;8;8;
73565;PMS5003;61846;52.970;-3.168;2024-01-07T08:35:24;11;11;
73565;PMS5003;61846;52.970;-3.168;2024-01-07T08:37:50;11;10;
73565;PMS5003;61846;52.970;-3.168;2024-01-07T08:40:16;8;7;
73565;PMS5003;61846;52.970;-3.168;2024-01-07T08:42:41;8;8;
73565;PMS5003;61846;52.970;-3.168;2024-01-07T08:45:07;17;8;
73565;PMS5003;61846;52.970;-3.168;2024-01-07T08:47:32;9;9;
73565;PMS5003;61846;52.970;-3.168;2024-01-07T08:49:57;10;10;
73565;PMS5003;61846;52.970;-3.168;2024-01-07T08:52:23;10;8;
73565;PMS5003;61846;52.970;-3.168;2024-01-07T08:54:49;9;8;
73565;PMS5003;61846;52.970;-3.168;2024-01-07T08:57:16;9;9;
73565;PMS5003;61846;52.970;-3.168;2024-01-07T08:59:40;16;11;
73565;PMS5003;61846;52.970;-3.168;2024-01-07T09:02:06;12;9;
73565;PMS5003;61846;52.970;-3.168;2024-01-07T09:04:31;16;9;
73565;PMS5003;61846;52.970;-3.168;2024-01-07T09:06:57;10;10;
73565;PMS5003;61846;52.970;-3.168;2024-01-07T09:09:22;11;9;
73565;PMS5003;61846;52.970;-3.168;2024-01-07T09:11:48;14;12;
73565;PMS5003;61846;52.970;-3.168;2024-01-07T09:14:13;25;20;
73565;PMS5003;61846;52.970;-3.168;2024-01-07T09:16:39;13;12;
73565;PMS5003;61846;52.970;-3.168;2024-01-07T09:19:05;8;8;
73565;PMS5003;61846;52.970;-3.168;2024-01-07T09:21:30;13;13;
73565;PMS5003;61846;52.970;-3.168;2024-01-07T09:23:56;10;10;
73565;PMS5003;61846;52.970;-3.168;2024-01-07T09:26:22;13;13;
73565;PMS5003;61846;52.970;-3.168;2024-01-07T09:28:47;12;12;
73565;PMS5003;61846;52.970;-3.168;2024-01-07T09:31:13;11;11;
73565;PMS5003;61846;52.970;-3.168;2024-01-07T09:33:39;10;10;
73565;PMS5003;61846;52.970;-3.168;2024-01-07T09:36:04;15;10;
73565;PMS5003;61846;52.970;-3.168;2024-01-07T09:38:29;10;10;
73565;PMS5003;61846;52.970;-3.168;2024-01-07T09:40:55;7;6;
73565;PMS5003;61846;52.970;-3.168;2024-01-07T09:43:20;10;10;
73565;PMS5003;61846;52.970;-3.168;2024-01-07T09:45:46;12;10;
73565;PMS5003;61846;52.970;-3.168;2024-01-07T09:48:11;9;9;
73565;PMS5003;61846;52.970;-3.168;2024-01-07T09:50:37;6;6;
73565;PMS5003;61846;52.970;-3.168;2024-01-07T09:53:03;15;11;
73565;PMS5003;61846;52.970;-3.168;2024-01-07T09:55:31;16;10;
73565;PMS5003;61846;52.970;-3.168;2024-01-07T09:57:54;13;12;
73565;PMS5003;61846;52.970;-3.168;2024-01-07T10:00:19;10;9;
73565;PMS5003;61846;52.970;-3.168;2024-01-07T10:02:45;10;10;
73565;PMS5003;61846;52.970;-3.168;2024-01-07T10:05:10;18;12;
73565;PMS5003;61846;52.970;-3.168;2024-01-07T10:07:36;12;12;
73565;PMS5003;61846;52.970;-3.168;2024-01-07T10:12:27;11;9;
73565;PMS5003;61846;52.970;-3.168;2024-01-07T10:14:53;13;11;
73565;PMS5003;61846;52.970;-3.168;2024-01-07T10:17:19;12;12;
73565;PMS5003;61846;52.970;-3.168;2024-01-07T10:19:44;13;11;
73565;PMS5003;61846;52.970;-3.168;2024-01-07T10:22:11;15;14;
73565;PMS5003;61846;52.970;-3.168;2024-01-07T10:24:36;13;13;
73565;PMS5003;61846;52.970;-3.168;2024-01-07T10:27:02;16;15;
73565;PMS5003;61846;52.970;-3.168;2024-01-07T10:29:27;10;9;
73565;PMS5003;61846;52.970;-3.168;2024-01-07T10:31:52;10;10;
73565;PMS5003;61846;52.970;-3.168;2024-01-07T10:34:18;13;12;
73565;PMS5003;61846;52.970;-3.168;2024-01-07T10:36:43;12;10;
73565;PMS5003;61846;52.970;-3.168;2024-01-07T10:39:09;13;13;
73565;PMS5003;61846;52.970;-3.168;2024-01-07T10:41:35;14;13;
73565;PMS5003;61846;52.970;-3.168;2024-01-07T10:44:01;19;18;
73565;PMS5003;61846;52.970;-3.168;2024-01-07T10:46:26;16;16;
73565;PMS5003;61846;52.970;-3.168;2024-01-07T10:48:53;12;11;
73565;PMS5003;61846;52.970;-3.168;2024-01-07T10:51:17;21;15;
73565;PMS5003;61846;52.970;-3.168;2024-01-07T10:53:42;10;10;
73565;PMS5003;61846;52.970;-3.168;2024-01-07T10:56:08;17;16;
73565;PMS5003;61846;52.970;-3.168;2024-01-07T10:58:33;11;10;
73565;PMS5003;61846;52.970;-3.168;2024-01-07T11:00:59;16;14;
73565;PMS5003;61846;52.970;-3.168;2024-01-07T11:03:25;17;15;
73565;PMS5003;61846;52.970;-3.168;2024-01-07T11:05:51;32;25;
73565;PMS5003;61846;52.970;-3.168;2024-01-07T11:08:18;33;28;
73565;PMS5003;61846;52.970;-3.168;2024-01-07T11:10:41;31;30;
73565;PMS5003;61846;52.970;-3.168;2024-01-07T11:13:05;29;28;
73565;PMS5003;61846;52.970;-3.168;2024-01-07T11:17:56;28;26;
73565;PMS5003;61846;52.970;-3.168;2024-01-07T11:20:22;31;27;
73565;PMS5003;61846;52.970;-3.168;2024-01-07T11:22:47;17;15;
73565;PMS5003;61846;52.970;-3.168;2024-01-07T11:27:39;23;18;
73565;PMS5003;61846;52.970;-3.168;2024-01-07T11:30:05;20;19;
73565;PMS5003;61846;52.970;-3.168;2024-01-07T11:32:29;20;17;
73565;PMS5003;61846;52.970;-3.168;2024-01-07T11:34:54;19;19;
73565;PMS5003;61846;52.970;-3.168;2024-01-07T11:37:20;25;20;
73565;PMS5003;61846;52.970;-3.168;2024-01-07T11:39:46;19;17;
73565;PMS5003;61846;52.970;-3.168;2024-01-07T11:42:11;17;15;
73565;PMS5003;61846;52.970;-3.168;2024-01-07T11:44:36;23;15;
73565;PMS5003;61846;52.970;-3.168;2024-01-07T11:47:02;21;16;
73565;PMS5003;61846;52.970;-3.168;2024-01-07T11:49:27;20;18;
73565;PMS5003;61846;52.970;-3.168;2024-01-07T11:51:52;26;18;
73565;PMS5003;61846;52.970;-3.168;2024-01-07T11:54:18;20;20;
73565;PMS5003;61846;52.970;-3.168;2024-01-07T11:56:43;19;19;
73565;PMS5003;61846;52.970;-3.168;2024-01-07T11:59:08;10;10;
73565;PMS5003;61846;52.970;-3.168;2024-01-07T12:01:34;11;11;
73565;PMS5003;61846;52.970;-3.168;2024-01-07T12:04:00;18;15;
73565;PMS5003;61846;52.970;-3.168;2024-01-07T12:06:26;19;13;
73565;PMS5003;61846;52.970;-3.168;2024-01-07T12:08:51;14;12;
73565;PMS5003;61846;52.970;-3.168;2024-01-07T12:11:16;21;16;
73565;PMS5003;61846;52.970;-3.168;2024-01-07T12:13:42;20;16;
73565;PMS5003;61846;52.970;-3.168;2024-01-07T12:16:08;14;12;
73565;PMS5003;61846;52.970;-3.168;2024-01-07T12:18:34;14;14;
73565;PMS5003;61846;52.970;-3.168;2024-01-07T12:20:59;14;13;
73565;PMS5003;61846;52.970;-3.168;2024-01-07T12:23:24;16;16;
73565;PMS5003;61846;52.970;-3.168;2024-01-07T12:25:49;16;15;
73565;PMS5003;61846;52.970;-3.168;2024-01-07T12:28:16;17;16;
73565;PMS5003;61846;52.970;-3.168;2024-01-07T12:30:40;15;15;
73565;PMS5003;61846;52.970;-3.168;2024-01-07T12:33:05;23;20;
73565;PMS5003;61846;52.970;-3.168;2024-01-07T12:35:30;20;19;
73565;PMS5003;61846;52.970;-3.168;2024-01-07T12:37:56;23;15;
73565;PMS5003;61846;52.970;-3.168;2024-01-07T12:40:21;20;16;
73565;PMS5003;61846;52.970;-3.168;2024-01-07T12:42:47;23;19;
73565;PMS5003;61846;52.970;-3.168;2024-01-07T12:45:13;21;18;
73565;PMS5003;61846;52.970;-3.168;2024-01-07T12:47:38;61;50;
73565;PMS5003;61846;52.970;-3.168;2024-01-07T12:50:03;34;29;
73565;PMS5003;61846;52.970;-3.168;2024-01-07T12:52:28;20;18;
73565;PMS5003;61846;52.970;-3.168;2024-01-07T12:54:54;23;18;
73565;PMS5003;61846;52.970;-3.168;2024-01-07T12:57:19;21;20;
73565;PMS5003;61846;52.970;-3.168;2024-01-07T12:59:44;24;20;
73565;PMS5003;61846;52.970;-3.168;2024-01-07T13:02:10;26;20;
73565;PMS5003;61846;52.970;-3.168;2024-01-07T13:04:35;21;19;
73565;PMS5003;61846;52.970;-3.168;2024-01-07T13:06:59;49;35;
73565;PMS5003;61846;52.970;-3.168;2024-01-07T13:09:25;48;39;
73565;PMS5003;61846;52.970;-3.168;2024-01-07T13:11:51;38;30;
73565;PMS5003;61846;52.970;-3.168;2024-01-07T13:14:16;57;49;
73565;PMS5003;61846;52.970;-3.168;2024-01-07T13:16:42;40;36;
73565;PMS5003;61846;52.970;-3.168;2024-01-07T13:19:08;46;39;
73565;PMS5003;61846;52.970;-3.168;2024-01-07T13:21:33;26;23;
73565;PMS5003;61846;52.970;-3.168;2024-01-07T13:23:58;24;22;
73565;PMS5003;61846;52.970;-3.168;2024-01-07T13:26:23;28;25;
73565;PMS5003;61846;52.970;-3.168;2024-01-07T13:28:48;31;24;
73565;PMS5003;61846;52.970;-3.168;2024-01-07T13:31:14;30;22;
73565;PMS5003;61846;52.970;-3.168;2024-01-07T13:33:39;31;29;
73565;PMS5003;61846;52.970;-3.168;2024-01-07T13:36:05;44;39;
73565;PMS5003;61846;52.970;-3.168;2024-01-07T13:38:30;53;44;
73565;PMS5003;61846;52.970;-3.168;2024-01-07T13:40:55;57;50;
73565;PMS5003;61846;52.970;-3.168;2024-01-07T13:43:20;28;20;
73565;PMS5003;61846;52.970;-3.168;2024-01-07T13:45:46;27;23;
73565;PMS5003;61846;52.970;-3.168;2024-01-07T13:48:11;32;26;
73565;PMS5003;61846;52.970;-3.168;2024-01-07T13:50:36;49;38;
73565;PMS5003;61846;52.970;-3.168;2024-01-07T13:53:02;26;26;
73565;PMS5003;61846;52.970;-3.168;2024-01-07T13:55:27;35;27;
73565;PMS5003;61846;52.970;-3.168;2024-01-07T13:57:53;31;23;
73565;PMS5003;61846;52.970;-3.168;2024-01-07T14:00:18;30;23;
73565;PMS5003;61846;52.970;-3.168;2024-01-07T14:02:44;26;25;
73565;PMS5003;61846;52.970;-3.168;2024-01-07T14:05:10;87;79;
73565;PMS5003;61846;52.970;-3.168;2024-01-07T14:07:35;38;27;
73565;PMS5003;61846;52.970;-3.168;2024-01-07T14:10:00;46;34;
73565;PMS5003;61846;52.970;-3.168;2024-01-07T14:12:26;76;66;
73565;PMS5003;61846;52.970;-3.168;2024-01-07T14:14:51;47;40;
73565;PMS5003;61846;52.970;-3.168;2024-01-07T14:17:16;114;106;
73565;PMS5003;61846;52.970;-3.168;2024-01-07T14:19:41;108;90;
73565;PMS5003;61846;52.970;-3.168;2024-01-07T14:22:07;98;83;
73565;PMS5003;61846;52.970;-3.168;2024-01-07T14:24:33;56;50;
73565;PMS5003;61846;52.970;-3.168;2024-01-07T14:26:58;58;50;
73565;PMS5003;61846;52.970;-3.168;2024-01-07T14:29:24;43;33;
73565;PMS5003;61846;52.970;-3.168;2024-01-07T14:31:49;56;47;
73565;PMS5003;61846;52.970;-3.168;2024-01-07T14:34:15;47;42;
73565;PMS5003;61846;52.970;-3.168;2024-01-07T14:36:41;48;40;
73565;PMS5003;61846;52.970;-3.168;2024-01-07T14:39:06;42;33;
73565;PMS5003;61846;52.970;-3.168;2024-01-07T14:41:31;40;31;
73565;PMS5003;61846;52.970;-3.168;2024-01-07T14:43:56;39;29;
73565;PMS5003;61846;52.970;-3.168;2024-01-07T14:46:21;25;22;
73565;PMS5003;61846;52.970;-3.168;2024-01-07T14:48:47;22;21;
73565;PMS5003;61846;52.970;-3.168;2024-01-07T14:51:12;36;30;
73565;PMS5003;61846;52.970;-3.168;2024-01-07T14:53:37;26;25;
73565;PMS5003;61846;52.970;-3.168;2024-01-07T14:56:02;27;21;
73565;PMS5003;61846;52.970;-3.168;2024-01-07T14:58:27;25;18;
73565;PMS5003;61846;52.970;-3.168;2024-01-07T15:00:52;26;23;
73565;PMS5003;61846;52.970;-3.168;2024-01-07T15:03:18;26;18;
73565;PMS5003;61846;52.970;-3.168;2024-01-07T15:05:43;22;19;
73565;PMS5003;61846;52.970;-3.168;2024-01-07T15:08:08;23;20;
73565;PMS5003;61846;52.970;-3.168;2024-01-07T15:10:34;27;25;
73565;PMS5003;61846;52.970;-3.168;2024-01-07T15:12:59;15;15;
73565;PMS5003;61846;52.970;-3.168;2024-01-07T15:15:25;16;16;
73565;PMS5003;61846;52.970;-3.168;2024-01-07T15:17:50;17;15;
73565;PMS5003;61846;52.970;-3.168;2024-01-07T15:20:16;16;13;
73565;PMS5003;61846;52.970;-3.168;2024-01-07T15:22:41;22;17;
73565;PMS5003;61846;52.970;-3.168;2024-01-07T15:25:07;18;18;
73565;PMS5003;61846;52.970;-3.168;2024-01-07T15:27:32;18;17;
73565;PMS5003;61846;52.970;-3.168;2024-01-07T15:29:58;18;14;
73565;PMS5003;61846;52.970;-3.168;2024-01-07T15:32:23;16;16;
73565;PMS5003;61846;52.970;-3.168;2024-01-07T15:34:48;15;15;
73565;PMS5003;61846;52.970;-3.168;2024-01-07T15:37:16;17;17;
73565;PMS5003;61846;52.970;-3.168;2024-01-07T15:39:39;13;12;
73565;PMS5003;61846;52.970;-3.168;2024-01-07T15:42:05;20;15;
73565;PMS5003;61846;52.970;-3.168;2024-01-07T15:44:30;12;12;
73565;PMS5003;61846;52.970;-3.168;2024-01-07T15:46:56;20;12;
73565;PMS5003;61846;52.970;-3.168;2024-01-07T15:49:21;14;14;
73565;PMS5003;61846;52.970;-3.168;2024-01-07T15:51:46;30;22;
73565;PMS5003;61846;52.970;-3.168;2024-01-07T15:54:12;9;9;
73565;PMS5003;61846;52.970;-3.168;2024-01-07T15:56:37;12;12;
73565;PMS5003;61846;52.970;-3.168;2024-01-07T15:59:03;16;14;
73565;PMS5003;61846;52.970;-3.168;2024-01-07T16:01:28;19;17;